Time;durP1;ratioP1;P1;durP2;ratioP2;P2;SDS_P1;SDS_P2;PMS_P1;PMS_P2;Temp;Humidity;BMP_temperature;BMP_pressure;BME280_temperature;BME280_humidity;BME280_pressure;Samples;Min_cycle;Max_cycle;Signal;HPM_P1;HPM_P2
2022/08/30 00:01:10;;;;;;;3.80;1.73;;;;;;;18.09;68.29;100656.81;5052302;28;20036;-78
2022/08/30 00:03:44;;;;;;;4.60;1.85;;;;;;;18.03;68.49;100654.38;5052518;28;20049;-78
2022/08/30 00:06:10;;;;;;;6.05;1.88;;;;;;;18.08;68.49;100667.03;5052474;28;20079;-78
2022/08/30 00:08:36;;;;;;;4.38;2.30;;;;;;;18.08;68.24;100661.53;5052155;28;20029;-78
2022/08/30 00:11:03;;;;;;;;;;;;;;;18.05;68.59;100667.78;5052678;28;20051;-78
2022/08/30 00:13:29;;;;;;;4.85;2.00;;;;;;;17.98;69.06;100659.41;5052263;28;20294;-78
2022/08/30 00:15:54;;;;;;;;;;;;;;;17.90;69.48;100666.78;5052585;28;20090;-77
2022/08/30 00:18:19;;;;;;;5.23;1.87;;;;;;;17.85;69.69;100664.34;5055986;28;19950;-78
2022/08/30 00:20:45;;;;;;;;;;;;;;;17.87;69.67;100659.25;5056788;28;20089;-77
2022/08/30 00:23:12;;;;;;;5.38;1.70;;;;;;;17.90;69.36;100664.03;5055846;28;20007;-77
2022/08/30 00:25:38;;;;;;;5.22;1.70;;;;;;;17.90;69.38;100663.22;5055746;28;20036;-77
2022/08/30 00:28:04;;;;;;;6.90;1.80;;;;;;;17.81;69.94;100657.19;5055478;28;20433;-77
2022/08/30 00:30:29;;;;;;;;;;;;;;;17.65;70.50;100654.56;5056286;28;20112;-78
2022/08/30 00:32:54;;;;;;;5.45;2.30;;;;;;;17.57;70.93;100661.09;5055485;28;20374;-78
2022/08/30 00:35:20;;;;;;;;;;;;;;;17.63;70.87;100656.88;5055924;28;20057;-78
2022/08/30 00:37:46;;;;;;;3.72;1.67;;;;;;;17.70;70.59;100662.53;5055593;28;20247;-77
2022/08/30 00:40:14;;;;;;;5.47;1.98;;;;;;;17.71;70.74;100653.09;5055866;28;20756;-78
2022/08/30 00:42:41;;;;;;;5.38;1.92;;;;;;;17.72;70.53;100649.19;5055454;28;20373;-79
2022/08/30 00:45:18;;;;;;;3.63;1.90;;;;;;;17.66;70.87;100643.16;5055726;28;20036;-78
2022/08/30 00:47:44;;;;;;;3.92;1.40;;;;;;;17.54;71.22;100645.31;5055368;28;20060;-78
2022/08/30 00:50:10;;;;;;;;;;;;;;;17.48;71.64;100649.56;5056005;28;20460;-78
2022/08/30 00:52:38;;;;;;;5.13;1.80;;;;;;;17.50;71.79;100652.75;5055587;28;20324;-77
2022/08/30 00:55:04;;;;;;;4.47;1.70;;;;;;;17.47;71.69;100653.44;5055413;28;20025;-77
2022/08/30 00:57:31;;;;;;;17.48;3.13;;;;;;;17.47;71.81;100650.69;5037571;28;20033;-77
2022/08/30 00:59:57;;;;;;;6.35;2.00;;;;;;;17.50;71.69;100661.00;5055480;28;20388;-77
2022/08/30 01:02:24;;;;;;;4.18;1.77;;;;;;;17.56;71.42;100651.25;5055371;28;20036;-77
2022/08/30 01:04:50;;;;;;;6.40;1.88;;;;;;;17.44;71.87;100652.22;5055356;28;20053;-77
2022/08/30 01:07:16;;;;;;;3.70;1.70;;;;;;;17.36;72.22;100658.78;5037238;28;20160;-77
2022/08/30 01:09:42;;;;;;;4.45;1.90;;;;;;;17.32;72.50;100657.94;5055058;28;20036;-78
2022/08/30 01:12:08;;;;;;;5.85;1.98;;;;;;;17.27;72.71;100663.72;5055473;28;20521;-77
2022/08/30 01:14:33;;;;;;;;;;;;;;;17.30;72.69;100668.50;5055458;28;20039;-77
2022/08/30 01:17:02;;;;;;;6.10;1.90;;;;;;;17.32;72.65;100671.72;5055072;28;19912;-78
2022/08/30 01:19:45;;;;;;;4.43;1.70;;;;;;;17.41;72.29;100669.50;5054781;28;20434;-77
2022/08/30 01:22:22;;;;;;;3.83;1.58;;;;;;;17.42;72.18;100660.06;5054843;28;20021;-78
2022/08/30 01:24:49;;;;;;;4.80;1.90;;;;;;;17.42;72.31;100666.38;5054891;28;20033;-78
2022/08/30 01:27:16;;;;;;;4.13;2.00;;;;;;;17.38;72.28;100662.75;5054770;28;20025;-78
2022/08/30 01:29:43;;;;;;;6.15;1.85;;;;;;;17.29;72.50;100653.16;5053998;28;20515;-78
2022/08/30 01:32:17;;;;;;;4.38;1.85;;;;;;;17.36;72.51;100648.56;5054449;28;20467;-78
2022/08/30 01:34:43;;;;;;;5.50;1.60;;;;;;;17.31;72.58;100653.59;5054467;28;20063;-78
2022/08/30 01:37:09;;;;;;;4.03;1.90;;;;;;;17.21;72.98;100655.00;5054754;28;20032;-78
2022/08/30 01:39:34;;;;;;;4.85;2.63;;;;;;;17.21;72.94;100657.75;5036843;28;20113;-78
2022/08/30 01:42:00;;;;;;;;;;;;;;;17.16;73.24;100657.25;5054754;28;20037;-78
2022/08/30 01:44:25;;;;;;;8.20;1.80;;;;;;;17.25;72.84;100660.56;5036665;28;19913;-78
2022/08/30 01:46:50;;;;;;;3.78;1.88;;;;;;;17.35;72.53;100648.94;5054282;28;20040;-78
2022/08/30 01:49:17;;;;;;;;;;;;;;;17.25;72.80;100658.59;5054839;28;20033;-77
2022/08/30 01:51:43;;;;;;;3.95;1.75;;;;;;;17.26;72.87;100667.66;5054304;28;20275;-78
2022/08/30 01:54:08;;;;;;;3.95;1.95;;;;;;;17.23;72.93;100665.63;5054400;28;20033;-77
2022/08/30 01:56:33;;;;;;;4.50;1.40;;;;;;;17.27;72.86;100669.22;5054291;28;20035;-78
2022/08/30 01:58:59;;;;;;;4.18;1.52;;;;;;;17.21;73.10;100668.75;5054629;28;20529;-77
2022/08/30 02:01:25;;;;;;;;;;;;;;;17.21;73.11;100670.72;5054421;28;20094;-78
2022/08/30 02:03:54;;;;;;;5.13;1.90;;;;;;;17.20;73.17;100666.38;5053731;28;19916;-77
2022/08/30 02:06:21;;;;;;;3.90;1.73;;;;;;;17.31;72.57;100659.09;5054428;28;20029;-78
2022/08/30 02:08:47;;;;;;;4.43;1.75;;;;;;;17.37;72.38;100671.38;5053996;28;20035;-77
2022/08/30 02:11:13;;;;;;;3.55;1.67;;;;;;;17.30;72.66;100671.25;5053560;28;20090;-77
2022/08/30 02:13:40;;;;;;;;;;;;;;;17.20;73.23;100661.66;5054786;28;20039;-77
2022/08/30 02:16:10;;;;;;;3.77;1.73;;;;;;;17.24;72.65;100667.22;5053903;28;20381;-76
2022/08/30 02:18:38;;;;;;;6.20;1.98;;;;;;;17.25;73.03;100663.31;5054028;28;20353;-77
2022/08/30 02:21:04;;;;;;;4.35;1.80;;;;;;;17.27;72.80;100658.22;5053760;28;20155;-77
2022/08/30 02:23:30;;;;;;;3.70;1.40;;;;;;;17.23;72.89;100658.16;5053498;28;20036;-77
2022/08/30 02:25:55;;;;;;;3.92;1.60;;;;;;;17.30;72.78;100660.25;5053709;28;20063;-77
2022/08/30 02:28:20;;;;;;;;;;;;;;;17.14;73.19;100663.94;5053937;28;20040;-78
2022/08/30 02:30:46;;;;;;;3.80;1.43;;;;;;;17.19;73.31;100660.06;5054187;28;19916;-77
2022/08/30 02:33:12;;;;;;;3.80;1.50;;;;;;;17.17;73.27;100664.34;5053507;28;20843;-77
2022/08/30 02:35:37;;;;;;;3.50;1.60;;;;;;;17.17;73.21;100659.66;5053596;28;20071;-77
2022/08/30 02:38:03;;;;;;;;;;;;;;;17.16;73.20;100649.00;5053947;28;20356;-78
2022/08/30 02:40:28;;;;;;;4.90;1.77;;;;;;;17.18;73.07;100658.47;5052823;28;19912;-78
2022/08/30 02:42:54;;;;;;;;;;;;;;;17.20;73.02;100655.38;5053608;28;20036;-78
2022/08/30 02:45:19;;;;;;;7.82;1.75;;;;;;;17.12;73.35;100654.41;5053548;28;20263;-77
2022/08/30 02:47:44;;;;;;;;;;;;;;;17.08;73.50;100651.63;5053615;28;20383;-77
2022/08/30 02:50:10;;;;;;;3.97;1.57;;;;;;;17.02;73.64;100644.84;5053414;28;19917;-77
2022/08/30 02:52:36;;;;;;;;;;;;;;;16.97;74.06;100638.84;5053485;28;20040;-77
2022/08/30 02:55:02;;;;;;;4.32;1.70;;;;;;;16.90;74.12;100641.44;5053242;28;20003;-76
2022/08/30 02:57:28;;;;;;;4.65;1.70;;;;;;;16.96;73.76;100645.47;5053018;28;20116;-77
2022/08/30 02:59:53;;;;;;;3.78;1.90;;;;;;;17.07;73.62;100649.22;5052918;28;20451;-77
2022/08/30 03:02:18;;;;;;;;;;;;;;;17.04;73.64;100645.25;5053700;28;20048;-77
2022/08/30 03:04:44;;;;;;;4.93;1.63;;;;;;;17.13;73.46;100640.31;5053273;28;19917;-77
2022/08/30 03:07:09;;;;;;;;;;;;;;;17.01;73.49;100646.00;5035597;28;20360;-76
2022/08/30 03:09:35;;;;;;;3.22;1.48;;;;;;;17.08;73.69;100648.06;5052658;28;19981;-77
2022/08/30 03:12:01;;;;;;;;;;;;;;;17.08;73.44;100637.84;5053216;28;20064;-76
2022/08/30 03:14:26;;;;;;;4.05;1.67;;;;;;;17.05;73.42;100633.09;5052592;28;19913;-77
2022/08/30 03:16:52;;;;;;;;;;;;;;;17.00;73.82;100633.41;5053215;28;20075;-77
2022/08/30 03:19:17;;;;;;;3.67;1.70;;;;;;;16.99;73.89;100639.28;5035282;28;19912;-76
2022/08/30 03:21:43;;;;;;;;;;;;;;;17.05;73.55;100637.81;5053444;28;20033;-77
2022/08/30 03:24:09;;;;;;;4.05;1.50;;;;;;;17.04;73.65;100637.00;5053046;28;20385;-77
2022/08/30 03:26:34;;;;;;;3.67;1.40;;;;;;;17.15;73.47;100639.97;5053758;28;20036;-77
2022/08/30 03:29:00;;;;;;;;;;;;;;;17.01;73.59;100643.25;5053991;28;20162;-77
2022/08/30 03:31:26;;;;;;;4.05;1.50;;;;;;;16.90;74.09;100644.19;5052823;28;20027;-77
2022/08/30 03:33:51;;;;;;;3.90;1.58;;;;;;;16.88;74.26;100641.03;5052456;28;20116;-76
2022/08/30 03:36:17;;;;;;;;;;;;;;;16.72;74.98;100632.88;5053524;28;20439;-78
2022/08/30 03:38:42;;;;;;;3.13;1.60;;;;;;;16.63;75.33;100635.81;5034967;28;20378;-77
2022/08/30 03:41:07;;;;;;;;;;;;;;;16.65;75.41;100643.69;5053238;28;20252;-77
2022/08/30 03:43:33;;;;;;;3.88;1.83;;;;;;;16.72;75.11;100635.63;5052477;28;20359;-77
2022/08/30 03:45:59;;;;;;;;;;;;;;;16.59;75.39;100642.38;5053184;28;20033;-77
2022/08/30 03:48:25;;;;;;;4.10;1.80;;;;;;;16.51;75.80;100631.25;5052612;28;19920;-77
2022/08/30 03:50:50;;;;;;;3.97;1.90;;;;;;;16.55;75.60;100637.63;5052536;28;20021;-77
2022/08/30 03:53:15;;;;;;;;;;;;;;;16.52;75.66;100637.56;5057240;28;20112;-78
2022/08/30 03:55:41;;;;;;;4.00;2.00;;;;;;;16.62;75.42;100644.41;5056833;28;19958;-78
2022/08/30 03:58:06;;;;;;;4.05;1.80;;;;;;;16.54;75.49;100644.28;5056652;28;20259;-77
2022/08/30 04:00:32;;;;;;;;;;;;;;;16.65;75.41;100647.25;5057027;28;20037;-78
2022/08/30 04:02:57;;;;;;;4.07;1.67;;;;;;;16.65;75.34;100646.44;5056382;28;20370;-78
2022/08/30 04:05:22;;;;;;;4.53;1.90;;;;;;;16.60;75.58;100641.22;5056024;28;20966;-78
2022/08/30 04:07:48;;;;;;;;;;;;;;;16.45;76.09;100638.19;5056855;28;20025;-78
2022/08/30 04:10:13;;;;;;;5.63;1.90;;;;;;;16.44;75.88;100642.09;5056043;28;19920;-78
2022/08/30 04:12:38;;;;;;;;;;;;;;;16.33;76.47;100646.59;5056847;28;20059;-77
2022/08/30 04:15:05;;;;;;;4.87;1.93;;;;;;;16.32;76.35;100645.00;5056344;28;19919;-78
2022/08/30 04:17:30;;;;;;;4.93;2.05;;;;;;;16.35;76.42;100641.53;5038546;28;20389;-77
2022/08/30 04:19:55;;;;;;;3.43;1.63;;;;;;;16.28;76.66;100644.09;5056290;28;20048;-77
2022/08/30 04:22:21;;;;;;;4.15;2.00;;;;;;;16.43;76.28;100642.44;5056243;28;20317;-77
2022/08/30 04:24:46;;;;;;;;;;;;;;;16.42;76.29;100649.09;5056284;28;20033;-77
2022/08/30 04:27:11;;;;;;;4.37;1.90;;;;;;;16.35;76.43;100648.97;5055881;28;19928;-77
2022/08/30 04:29:36;;;;;;;;;;;;;;;16.20;76.63;100645.91;5056597;28;20065;-78
2022/08/30 04:32:02;;;;;;;4.63;1.75;;;;;;;16.25;76.99;100644.81;5055821;28;19913;-78
2022/08/30 04:34:27;;;;;;;;;;;;;;;16.17;77.09;100645.84;5056375;28;20028;-77
2022/08/30 04:36:53;;;;;;;3.73;1.83;;;;;;;16.25;76.54;100644.81;5055662;28;20510;-78
2022/08/30 04:39:19;;;;;;;4.00;1.83;;;;;;;16.27;76.80;100645.25;5055281;28;20334;-77
2022/08/30 04:41:45;;;;;;;4.43;2.10;;;;;;;16.34;76.52;100655.63;5055723;28;20283;-78
2022/08/30 04:44:10;;;;;;;5.18;2.40;;;;;;;16.26;76.88;100651.91;5055730;28;20116;-77
2022/08/30 04:46:36;;;;;;;3.75;1.65;;;;;;;16.21;77.03;100650.25;5055771;28;20029;-77
2022/08/30 04:49:03;;;;;;;3.80;1.98;;;;;;;16.10;77.83;100656.66;5037836;28;20124;-77
2022/08/30 04:51:29;;;;;;;5.90;1.92;;;;;;;16.00;78.17;100660.78;5055491;28;20029;-77
2022/08/30 04:53:54;;;;;;;4.22;2.17;;;;;;;15.83;78.67;100661.97;5055052;28;20028;-77
2022/08/30 04:56:21;;;;;;;4.50;2.35;;;;;;;15.89;78.78;100660.53;5054998;28;20044;-78
2022/08/30 04:58:49;;;;;;;4.72;2.05;;;;;;;15.92;78.98;100668.03;5055179;28;20138;-78
2022/08/30 05:01:28;;;;;;;7.10;2.55;;;;;;;16.02;78.24;100663.16;5055106;28;20045;-78
2022/08/30 05:03:55;;;;;;;5.03;2.40;;;;;;;16.01;78.41;100656.09;5054131;28;20044;-78
2022/08/30 05:06:22;;;;;;;3.72;1.70;;;;;;;15.93;78.71;100661.41;5055106;28;20040;-78
2022/08/30 05:08:47;;;;;;;4.22;2.05;;;;;;;16.04;78.65;100666.34;5055163;28;20399;-77
2022/08/30 05:11:14;;;;;;;4.32;1.90;;;;;;;16.14;77.90;100676.78;5054888;28;20033;-78
2022/08/30 05:13:40;;;;;;;5.20;2.10;;;;;;;16.02;78.34;100679.66;5036636;28;20116;-77
2022/08/30 05:16:07;;;;;;;4.30;2.30;;;;;;;15.89;78.76;100687.97;5054851;28;20121;-78
2022/08/30 05:18:33;;;;;;;4.60;2.45;;;;;;;15.88;78.96;100680.91;5054940;28;20120;-78
2022/08/30 05:21:11;;;;;;;7.22;2.00;;;;;;;15.80;79.17;100678.34;5054891;28;20120;-78
2022/08/30 05:23:37;;;;;;;5.07;2.20;;;;;;;15.68;79.42;100689.44;5054606;28;20158;-80
2022/08/30 05:26:21;;;;;;;9.18;2.28;;;;;;;15.75;79.57;100687.63;5054681;28;20036;-81
2022/08/30 05:28:47;;;;;;;4.50;2.33;;;;;;;15.64;80.12;100692.09;5054943;28;20431;-81
2022/08/30 05:31:17;;;;;;;5.43;2.05;;;;;;;15.64;80.21;100697.59;5055204;28;20080;-79
2022/08/30 05:33:43;;;;;;;4.80;2.65;;;;;;;15.73;79.66;100689.94;5054734;28;20175;-80
2022/08/30 05:36:11;;;;;;;6.28;3.22;;;;;;;15.63;80.04;100693.25;5055273;28;20569;-80
2022/08/30 05:38:36;;;;;;;6.57;3.45;;;;;;;15.76;79.71;100691.19;5054964;28;20119;-80
2022/08/30 05:41:02;;;;;;;4.90;2.25;;;;;;;15.80;79.48;100695.63;5054819;28;20076;-80
2022/08/30 05:43:28;;;;;;;7.43;2.35;;;;;;;15.76;79.53;100694.72;5055125;28;20391;-80
2022/08/30 05:46:05;;;;;;;5.03;2.40;;;;;;;15.66;79.93;100706.25;5055206;28;20115;-80
2022/08/30 05:48:31;;;;;;;6.53;2.47;;;;;;;15.76;79.41;100705.69;5037091;28;20287;-80
2022/08/30 05:51:10;;;;;;;;;;;;;;;15.78;79.71;100708.88;5055372;28;20060;-82
2022/08/30 05:53:36;;;;;;;7.10;2.55;;;;;;;15.88;79.66;100696.59;5054107;28;19908;-81
2022/08/30 05:56:04;;;;;;;5.13;2.47;;;;;;;15.85;79.55;100700.84;5054025;28;20036;-82
2022/08/30 05:58:30;;;;;;;5.13;2.50;;;;;;;15.82;79.71;100692.53;5054587;28;20037;-82
2022/08/30 06:00:55;;;;;;;5.07;2.30;;;;;;;15.84;79.67;100702.00;5054266;28;20102;-80
2022/08/30 06:03:21;;;;;;;4.60;2.17;;;;;;;15.73;79.98;100700.94;5054022;28;20040;-80
2022/08/30 06:05:46;;;;;;;;;;;;;;;15.72;80.36;100707.56;5054820;28;20112;-81
2022/08/30 06:08:12;;;;;;;5.40;2.35;;;;;;;15.72;80.26;100702.09;5036701;28;19965;-80
2022/08/30 06:10:37;;;;;;;5.80;3.10;;;;;;;15.86;79.99;100705.19;5036046;28;20051;-82
2022/08/30 06:13:04;;;;;;;5.18;2.63;;;;;;;15.82;79.82;100698.81;5055551;28;20029;-83
2022/08/30 06:15:29;;;;;;;5.47;2.60;;;;;;;15.91;79.52;100704.91;5060121;28;20025;-83
2022/08/30 06:17:55;;;;;;;5.05;2.40;;;;;;;15.95;79.73;100697.53;5057741;28;20043;-82
2022/08/30 06:20:22;;;;;;;5.75;2.67;;;;;;;16.19;78.54;100704.78;5038940;28;20065;-83
2022/08/30 06:22:47;;;;;;;4.95;2.47;;;;;;;16.24;78.29;100698.19;5055106;28;20029;-83
2022/08/30 06:25:15;;;;;;;;;;;;;;;16.21;78.38;100701.66;5057565;28;20099;-85
2022/08/30 06:27:41;;;;;;;4.60;2.33;;;;;;;16.32;78.17;100710.94;5057405;28;19920;-81
2022/08/30 06:30:07;;;;;;;;;;;;;;;16.19;78.45;100706.72;5053845;28;20562;-81
2022/08/30 06:32:35;;;;;;;5.57;2.90;;;;;;;16.34;78.16;100705.88;5052913;28;19912;-81
2022/08/30 06:35:00;;;;;;;5.50;2.67;;;;;;;16.41;78.14;100711.53;5035568;28;20021;-81
2022/08/30 06:37:26;;;;;;;6.90;2.97;;;;;;;16.41;77.59;100706.03;5053260;28;20040;-82
2022/08/30 06:39:52;;;;;;;;;;;;;;;16.20;78.37;100702.81;5053974;28;20025;-82
2022/08/30 06:42:17;;;;;;;9.15;2.58;;;;;;;16.13;78.59;100697.97;5035332;28;19909;-81
2022/08/30 06:44:44;;;;;;;;;;;;;;;16.15;78.96;100706.66;5053492;28;20463;-82
2022/08/30 06:47:09;;;;;;;7.07;2.65;;;;;;;16.31;78.25;100706.63;5053034;28;20017;-81
2022/08/30 06:49:35;;;;;;;6.82;3.03;;;;;;;16.35;78.12;100701.19;5052867;28;20131;-80
2022/08/30 06:52:00;;;;;;;;;;;;;;;16.37;78.21;100707.91;5053513;28;20029;-81
2022/08/30 06:54:25;;;;;;;7.05;3.05;;;;;;;16.34;78.07;100692.16;5052636;28;19915;-81
2022/08/30 06:56:51;;;;;;;;;;;;;;;16.58;77.41;100702.06;5053023;28;20399;-80
2022/08/30 06:59:16;;;;;;;7.82;2.95;;;;;;;16.68;76.52;100695.25;5052475;28;19954;-81
2022/08/30 07:01:44;;;;;;;;;;;;;;;16.73;76.76;100704.00;5053198;28;20036;-82
2022/08/30 07:04:09;;;;;;;6.25;2.85;;;;;;;16.85;76.24;100700.31;5052536;28;19917;-81
2022/08/30 07:06:35;;;;;;;5.72;2.83;;;;;;;16.98;75.82;100704.50;5052703;28;20033;-81
2022/08/30 07:09:00;;;;;;;;;;;;;;;17.30;74.77;100702.34;5053926;28;20075;-81
2022/08/30 07:11:28;;;;;;;5.43;2.50;;;;;;;17.53;73.76;100704.31;5052592;28;19909;-82
2022/08/30 07:13:53;;;;;;;5.82;2.70;;;;;;;17.21;74.42;100704.53;5052240;28;20033;-81
2022/08/30 07:16:19;;;;;;;6.55;3.20;;;;;;;17.13;74.95;100702.78;5052634;28;20434;-82
2022/08/30 07:18:50;;;;;;;;;;;;;;;17.10;75.10;100698.03;5053340;28;20121;-81
2022/08/30 07:21:19;;;;;;;6.80;3.20;;;;;;;17.06;75.13;100705.41;5052687;28;19909;-81
2022/08/30 07:23:49;;;;;;;13.60;6.13;;;;;;;17.31;74.46;100700.38;5052335;28;20025;-81
2022/08/30 07:26:18;;;;;;;5.68;3.00;;;;;;;17.36;73.97;100700.88;5051927;28;20032;-82
2022/08/30 07:28:45;;;;;;;4.75;2.45;;;;;;;17.43;73.92;100705.69;5052574;28;20056;-80
2022/08/30 07:31:12;;;;;;;6.47;2.83;;;;;;;17.63;73.36;100706.44;5052636;28;20068;-82
2022/08/30 07:33:39;;;;;;;5.50;3.22;;;;;;;17.80;72.56;100707.91;5052203;28;20033;-82
2022/08/30 07:36:06;;;;;;;5.70;2.85;;;;;;;17.90;72.13;100708.09;5052300;28;20423;-81
2022/08/30 07:38:31;;;;;;;6.30;2.58;;;;;;;17.80;72.76;100710.66;5052820;28;20507;-82
2022/08/30 07:40:59;;;;;;;;;;;;;;;17.89;72.25;100708.47;5053002;28;20072;-82
2022/08/30 07:43:26;;;;;;;5.80;2.72;;;;;;;18.10;71.67;100710.75;5052705;28;19915;-81
2022/08/30 07:45:51;;;;;;;5.68;2.78;;;;;;;18.33;71.10;100712.28;5052493;28;20108;-82
2022/08/30 07:48:16;;;;;;;;;;;;;;;18.51;69.93;100714.50;5052613;28;20179;-81
2022/08/30 07:50:44;;;;;;;5.53;2.63;;;;;;;18.22;70.67;100711.34;5052928;28;19971;-81
2022/08/30 07:53:09;;;;;;;5.10;2.58;;;;;;;18.19;71.24;100712.09;5053068;28;20036;-80
2022/08/30 07:55:40;;;;;;;;;;;;;;;18.19;70.98;100711.28;5053147;28;20029;-81
2022/08/30 07:58:05;;;;;;;9.95;4.50;;;;;;;18.47;70.39;100719.16;5052448;28;19923;-81
2022/08/30 08:00:31;;;;;;;;;;;;;;;18.52;69.84;100722.38;5053283;28;20519;-82
2022/08/30 08:02:56;;;;;;;8.27;2.58;;;;;;;18.52;69.88;100716.09;5054631;28;19919;-82
2022/08/30 08:05:22;;;;;;;;;;;;;;;18.28;70.46;100726.38;5056014;28;20579;-82
2022/08/30 08:07:47;;;;;;;5.05;2.60;;;;;;;18.34;70.66;100722.16;5054861;28;19916;-82
2022/08/30 08:10:13;;;;;;;;;;;;;;;18.48;70.38;100729.03;5052863;28;20423;-81
2022/08/30 08:12:39;;;;;;;5.80;2.58;;;;;;;18.67;69.72;100731.69;5052863;28;20317;-82
2022/08/30 08:15:06;;;;;;;5.40;2.90;;;;;;;18.86;68.56;100722.44;5052294;28;20056;-80
2022/08/30 08:17:31;;;;;;;4.97;2.70;;;;;;;18.82;68.71;100727.13;5052774;28;20044;-81
2022/08/30 08:19:56;;;;;;;;;;;;;;;18.67;69.04;100722.63;5052811;28;20029;-82
2022/08/30 08:22:21;;;;;;;5.03;2.67;;;;;;;18.64;69.26;100726.88;5034459;28;20278;-80
2022/08/30 08:24:48;;;;;;;5.68;2.70;;;;;;;18.79;69.19;100717.63;5052593;28;20481;-80
2022/08/30 08:27:14;;;;;;;7.43;3.50;;;;;;;18.86;68.37;100722.44;5052387;28;20029;-80
2022/08/30 08:29:39;;;;;;;4.53;2.42;;;;;;;18.80;68.50;100721.97;5052204;28;20041;-81
2022/08/30 08:32:04;;;;;;;;;;;;;;;18.92;68.25;100726.44;5052470;28;20120;-81
2022/08/30 08:34:30;;;;;;;4.50;2.27;;;;;;;19.00;68.29;100730.09;5052482;28;19912;-81
2022/08/30 08:36:55;;;;;;;;;;;;;;;19.08;67.87;100726.25;5052753;28;20350;-81
2022/08/30 08:39:20;;;;;;;4.00;1.83;;;;;;;19.28;66.84;100715.81;5056178;28;19909;-81
2022/08/30 08:42:12;;;;;;;4.47;2.10;;;;;;;19.32;66.43;100714.69;5056145;28;20074;-83
2022/08/30 08:45:01;;;;;;;5.38;2.38;;;;;;;19.22;67.01;100712.59;5017606;28;20037;-82
2022/08/30 08:47:39;;;;;;;4.53;2.20;;;;;;;19.11;67.48;100714.44;5055570;28;20029;-80
2022/08/30 08:50:11;;;;;;;3.50;1.88;;;;;;;19.49;66.37;100716.81;5055432;28;20488;-82
2022/08/30 08:55:24;;;;;;;7.85;3.03;;;;;;;19.50;66.08;100721.16;5055305;28;20079;-81
2022/08/30 08:57:51;;;;;;;5.20;2.20;;;;;;;19.48;66.22;100718.00;5055237;28;20392;-80
2022/08/30 09:00:16;;;;;;;5.60;2.42;;;;;;;19.69;65.81;100720.19;5055445;28;20025;-81
2022/08/30 09:02:50;;;;;;;4.97;2.20;;;;;;;19.69;65.64;100727.69;5055534;28;20052;-80
2022/08/30 09:05:21;;;;;;;4.28;2.28;;;;;;;19.67;65.81;100721.75;5055631;28;20048;-80
2022/08/30 09:07:53;;;;;;;4.82;2.20;;;;;;;19.94;64.65;100725.09;5055271;28;20150;-81
2022/08/30 09:10:19;;;;;;;4.90;2.03;;;;;;;20.14;64.11;100726.44;5055197;28;20419;-82
2022/08/30 09:12:45;;;;;;;5.18;2.30;;;;;;;20.22;63.13;100722.53;5055177;28;20025;-82
2022/08/30 09:15:18;;;;;;;4.65;1.92;;;;;;;20.13;64.17;100717.34;5055345;28;20100;-82
2022/08/30 09:18:05;;;;;;;4.95;1.83;;;;;;;20.39;63.37;100721.06;5055243;28;20033;-84
2022/08/30 09:20:35;;;;;;;4.90;2.30;;;;;;;20.43;62.76;100724.66;5055323;28;20032;-82
2022/08/30 09:23:31;;;;;;;6.03;2.50;;;;;;;20.31;63.32;100708.38;5055093;28;20390;-80
2022/08/30 09:26:04;;;;;;;5.15;2.15;;;;;;;20.41;63.75;100725.06;5038325;28;20037;-83
2022/08/30 09:28:43;;;;;;;6.20;2.00;;;;;;;20.35;63.23;100717.50;5055075;28;20029;-84
2022/08/30 09:31:21;;;;;;;4.97;2.50;;;;;;;20.73;62.08;100725.22;5056580;28;20086;-84
2022/08/30 09:34:04;;;;;;;4.22;1.90;;;;;;;20.80;61.45;100720.88;5065332;28;20029;-84
2022/08/30 09:36:32;;;;;;;5.80;2.50;;;;;;;20.73;61.82;100716.13;5065920;28;20367;-87
2022/08/30 09:39:02;;;;;;;4.13;2.10;;;;;;;20.62;62.01;100715.28;5059584;28;20361;-83
2022/08/30 09:41:37;;;;;;;5.45;2.50;;;;;;;20.46;62.42;100718.34;5056214;28;20040;-82
2022/08/30 09:44:18;;;;;;;4.20;2.10;;;;;;;20.53;62.01;100715.66;5039827;28;20537;-84
2022/08/30 09:46:59;;;;;;;6.57;3.17;;;;;;;20.60;61.38;100720.41;5038722;28;20033;-84
2022/08/30 09:49:32;;;;;;;7.85;2.78;;;;;;;20.82;61.09;100716.53;5055278;28;20029;-83
2022/08/30 09:52:16;;;;;;;4.70;2.30;;;;;;;21.10;60.59;100707.53;5038115;28;20029;-83
2022/08/30 09:55:18;;;;;;;4.25;2.20;;;;;;;21.18;60.12;100700.84;5056130;28;20025;-83
2022/08/30 09:58:17;;;;;;;4.55;2.25;;;;;;;21.22;59.37;100701.66;5035890;28;20345;-82
2022/08/30 10:00:56;;;;;;;4.65;2.17;;;;;;;21.04;60.18;100703.59;5054393;28;20043;-82
2022/08/30 10:03:39;;;;;;;4.75;2.00;;;;;;;21.01;59.30;100710.69;5054032;28;20112;-83
2022/08/30 10:06:37;;;;;;;5.15;1.90;;;;;;;21.40;59.30;100709.22;5054160;28;20484;-82
2022/08/30 10:09:18;;;;;;;4.07;2.08;;;;;;;21.69;58.39;100707.28;5053940;28;20048;-82
2022/08/30 10:11:55;;;;;;;4.65;1.90;;;;;;;21.72;57.99;100704.50;5036259;28;20044;-82
2022/08/30 10:14:40;;;;;;;5.22;2.10;;;;;;;21.68;58.10;100703.72;5035918;28;20037;-82
2022/08/30 10:17:11;;;;;;;4.32;2.03;;;;;;;21.86;57.57;100698.94;5054503;28;20104;-82
2022/08/30 10:20:15;;;;;;;4.70;1.73;;;;;;;22.10;56.85;100691.00;5053789;28;20518;-82
2022/08/30 10:23:05;;;;;;;3.92;1.88;;;;;;;21.97;56.23;100695.34;5053868;28;20029;-82
2022/08/30 10:25:43;;;;;;;4.35;1.92;;;;;;;22.02;56.20;100689.44;5041751;28;20040;-82
2022/08/30 10:28:27;;;;;;;4.15;1.85;;;;;;;22.07;56.15;100694.59;5053890;28;20021;-82
2022/08/30 10:31:03;;;;;;;4.82;1.88;;;;;;;22.09;55.75;100687.44;5053656;28;20029;-84
2022/08/30 10:33:36;;;;;;;5.15;1.85;;;;;;;22.10;56.10;100683.47;5053654;28;20044;-83
2022/08/30 10:36:05;;;;;;;5.15;1.90;;;;;;;22.31;55.60;100685.41;5053572;28;20108;-83
2022/08/30 10:38:41;;;;;;;4.65;2.22;;;;;;;22.47;54.15;100682.97;5053290;28;20399;-83
2022/08/30 10:41:43;;;;;;;5.03;2.05;;;;;;;22.53;54.33;100691.69;5053482;28;20043;-82
2022/08/30 10:44:17;;;;;;;3.53;1.70;;;;;;;22.61;53.94;100690.47;5011515;28;20079;-81
2022/08/30 10:47:01;;;;;;;4.47;1.90;;;;;;;22.45;53.63;100690.13;5053460;28;20037;-83
2022/08/30 10:49:31;;;;;;;8.38;1.90;;;;;;;22.49;53.66;100697.22;5053133;28;20357;-84
2022/08/30 10:52:19;;;;;;;3.35;1.65;;;;;;;22.53;54.14;100688.91;5035981;28;20411;-83
2022/08/30 10:54:49;;;;;;;4.22;1.45;;;;;;;22.99;53.03;100680.38;5053665;28;20032;-84
2022/08/30 10:57:15;;;;;;;3.30;1.30;;;;;;;22.83;51.87;100687.59;5053374;28;20025;-86
2022/08/30 10:59:51;;;;;;;3.67;1.60;;;;;;;23.00;52.01;100686.72;5053360;28;20070;-82
2022/08/30 11:02:34;;;;;;;3.40;1.50;;;;;;;22.80;52.77;100683.63;5053458;28;20104;-82
2022/08/30 11:05:18;;;;;;;4.35;1.80;;;;;;;22.93;51.53;100682.00;5054255;28;20051;-82
2022/08/30 11:08:12;;;;;;;5.30;2.15;;;;;;;22.82;52.06;100678.50;5035101;28;20032;-82
2022/08/30 11:10:52;;;;;;;3.13;1.60;;;;;;;22.79;52.39;100685.63;5053176;28;20078;-81
2022/08/30 11:13:27;;;;;;;5.18;1.75;;;;;;;22.70;52.50;100681.72;5053290;28;20093;-82
2022/08/30 11:16:06;;;;;;;3.05;1.40;;;;;;;22.86;52.12;100681.28;5035859;28;20075;-82
2022/08/30 11:18:56;;;;;;;4.00;1.60;;;;;;;22.89;52.29;100684.03;5036173;28;20038;-84
2022/08/30 11:21:37;;;;;;;4.40;1.40;;;;;;;22.65;52.82;100679.34;5053475;28;20112;-84
2022/08/30 11:24:15;;;;;;;2.47;1.08;;;;;;;22.92;52.18;100685.19;5054003;28;20467;-83
2022/08/30 11:26:49;;;;;;;3.08;1.38;;;;;;;23.08;50.88;100672.41;5053215;28;20464;-84
2022/08/30 11:29:34;;;;;;;3.88;1.50;;;;;;;22.90;51.42;100671.72;5053000;28;20040;-84
2022/08/30 11:32:12;;;;;;;4.22;1.40;;;;;;;23.09;51.15;100673.97;5052976;28;20037;-81
2022/08/30 11:34:44;;;;;;;3.28;1.50;;;;;;;22.86;51.54;100673.72;5052878;28;20542;-85
2022/08/30 11:37:28;;;;;;;3.50;1.60;;;;;;;22.89;51.49;100669.34;5053905;28;20448;-82
2022/08/30 11:39:56;;;;;;;3.58;1.33;;;;;;;22.79;52.07;100682.06;5054301;28;20115;-85
2022/08/30 11:42:32;;;;;;;3.80;1.55;;;;;;;23.05;51.65;100667.66;5036527;28;20449;-84
2022/08/30 11:45:22;;;;;;;3.20;1.50;;;;;;;23.11;50.66;100670.81;5037588;28;20031;-85
2022/08/30 11:47:48;;;;;;;5.07;1.63;;;;;;;23.06;50.48;100672.03;5035824;28;20032;-84
2022/08/30 11:50:29;;;;;;;5.50;1.50;;;;;;;23.17;50.81;100665.59;5035578;28;20040;-84